Terminal Aerodrome Forecast
Issued by NWS Cleveland, OH

Home | Current Version | Previous Version | Graphics & Text | Print | Product List | Glossary On
Versions: 1 2 3 4 5 6 7 8 9 10 11 12 13 14 15 16
000
FTUS41 KCLE 160058 AAA
TAFTOL
TAF AMD
KTOL 160058Z 1601/1624 31007KT 4SM BR SCT025 OVC045
      TEMPO 1601/1605 2SM -RA BR BKN015
     FM160500 32006KT 5SM BR SCT007 OVC012
     FM161100 32012KT P6SM OVC015
     FM161600 32013KT P6SM BKN030
     FM162000 31011KT P6SM SCT035=

USA.gov is the U.S. government's official web portal to all federal, state and local government web resources and services.